Time;durP1;ratioP1;P1;durP2;ratioP2;P2;SDS_P1;SDS_P2;PMS_P1;PMS_P2;Temp;Humidity;BMP_temperature;BMP_pressure;BME280_temperature;BME280_humidity;BME280_pressure;Samples;Min_cycle;Max_cycle;Signal;HPM_P1;HPM_P2
2022/06/10 00:00:24;;;;;;;7.40;2.33;;;;;;;20.06;59.52;100605.19;1755802;81;25704;-57
2022/06/10 00:02:53;;;;;;;5.33;2.15;;;;;;;20.01;59.71;100604.44;1754211;81;25689;-56
2022/06/10 00:05:25;;;;;;;8.43;2.33;;;;;;;19.96;59.96;100594.13;1755220;80;26445;-56
2022/06/10 00:07:54;;;;;;;7.03;2.60;;;;;;;19.89;60.32;100600.08;1757660;80;25971;-56
2022/06/10 00:10:24;;;;;;;10.03;2.50;;;;;;;19.82;60.39;100601.91;1757789;80;27633;-56
2022/06/10 00:12:52;;;;;;;13.93;2.15;;;;;;;19.79;60.85;100602.30;1763177;80;27018;-56
2022/06/10 00:15:19;;;;;;;4.17;2.30;;;;;;;19.75;60.63;100596.41;1739253;82;25609;-56
2022/06/10 00:17:47;;;;;;;8.73;2.62;;;;;;;19.73;60.63;100597.66;1743373;81;26244;-56
2022/06/10 00:20:18;;;;;;;5.28;1.92;;;;;;;19.74;60.68;100593.88;1751180;81;25767;-56
2022/06/10 00:22:45;;;;;;;5.70;1.98;;;;;;;19.73;60.70;100592.19;1751442;81;28301;-56
2022/06/10 00:25:14;;;;;;;5.08;2.50;;;;;;;19.73;60.78;100599.02;1751717;81;25905;-56
2022/06/10 00:27:41;;;;;;;11.08;2.50;;;;;;;19.70;60.85;100598.37;1751582;81;25736;-55
2022/06/10 00:30:11;;;;;;;7.20;2.40;;;;;;;19.67;60.98;100606.98;1717776;81;26152;-56
2022/06/10 00:32:38;;;;;;;5.25;1.90;;;;;;;19.60;60.97;100606.06;1720627;83;25925;-56
2022/06/10 00:35:08;;;;;;;8.63;2.20;;;;;;;19.51;60.88;100608.12;1711308;83;27087;-56
2022/06/10 00:37:35;;;;;;;8.60;2.98;;;;;;;19.45;60.93;100604.84;1720636;83;25813;-56
2022/06/10 00:40:05;;;;;;;9.10;2.20;;;;;;;19.42;60.86;100604.36;1720576;83;26986;-55
2022/06/10 00:42:32;;;;;;;3.75;1.82;;;;;;;19.39;60.87;100604.25;1718962;83;26247;-56
2022/06/10 00:44:58;;;;;;;4.67;2.05;;;;;;;19.37;61.14;100605.82;1710927;81;25792;-56
2022/06/10 00:47:39;;;;;;;9.70;2.25;;;;;;;19.33;61.44;100601.79;1713390;83;28445;-56
2022/06/10 00:50:19;;;;;;;9.23;2.37;;;;;;;19.31;61.54;100601.67;1717352;83;25820;-56
2022/06/10 00:52:54;;;;;;;4.30;2.40;;;;;;;19.30;61.74;100609.53;1684469;84;25780;-55
2022/06/10 00:55:28;;;;;;;8.08;2.00;;;;;;;19.27;61.79;100606.69;1668713;84;27016;-55
2022/06/10 00:57:50;;;;;;;7.58;1.80;;;;;;;19.23;61.75;100604.88;1676925;84;26409;-55
2022/06/10 01:00:19;;;;;;;4.85;2.05;;;;;;;19.22;61.84;100603.19;1742476;81;28463;-55
2022/06/10 01:02:46;;;;;;;7.95;2.00;;;;;;;19.21;61.71;100600.67;1736029;81;25857;-55
2022/06/10 01:05:17;;;;;;;8.48;2.10;;;;;;;19.19;61.75;100598.11;1738809;81;25789;-55
2022/06/10 01:07:52;;;;;;;4.95;2.27;;;;;;;19.14;61.84;100601.97;1732805;81;26135;-55
2022/06/10 01:10:20;;;;;;;8.63;2.67;;;;;;;19.14;61.89;100597.05;1736900;81;25734;-55
2022/06/10 01:13:09;;;;;;;18.80;2.52;;;;;;;19.06;62.14;100601.58;1745920;81;28088;-55
2022/06/10 01:15:58;;;;;;;10.65;2.12;;;;;;;19.04;62.44;100607.77;1749110;81;25925;-55
2022/06/10 01:18:36;;;;;;;6.78;2.33;;;;;;;19.02;62.20;100613.06;1737801;81;25481;-55
2022/06/10 01:21:24;;;;;;;3.67;1.82;;;;;;;18.96;62.29;100609.23;1747643;81;26022;-56
2022/06/10 01:24:21;;;;;;;6.03;2.40;;;;;;;18.93;62.42;100611.02;1741860;81;25862;-55
2022/06/10 01:30:09;;;;;;;3.20;2.00;;;;;;;18.81;62.68;100609.30;1739143;80;25866;-57
2022/06/10 01:33:02;;;;;;;6.87;2.80;;;;;;;18.72;62.65;100614.02;1735447;81;25639;-56
2022/06/10 01:35:51;;;;;;;7.75;1.85;;;;;;;18.66;62.83;100615.31;1691044;83;27177;-55
2022/06/10 01:38:26;;;;;;;8.85;2.12;;;;;;;18.60;62.90;100616.95;1683175;83;25905;-55
2022/06/10 01:41:07;;;;;;;5.22;1.80;;;;;;;18.51;63.26;100612.66;1703560;83;28501;-55
2022/06/10 01:43:48;;;;;;;6.90;1.98;;;;;;;18.41;63.38;100613.81;1732636;82;25834;-56
2022/06/10 01:46:37;;;;;;;6.20;2.58;;;;;;;18.37;63.49;100609.77;1677937;83;25820;-56
2022/06/10 01:49:24;;;;;;;10.25;2.52;;;;;;;18.34;63.92;100609.31;1728462;81;26266;-56
2022/06/10 01:52:24;;;;;;;6.67;1.90;;;;;;;18.26;63.95;100609.76;1742941;80;25977;-56
2022/06/10 01:55:02;;;;;;;7.15;2.77;;;;;;;18.19;64.38;100618.37;1709500;83;27404;-55
2022/06/10 01:57:34;;;;;;;6.45;1.70;;;;;;;18.15;64.03;100618.41;1707750;83;25891;-55
2022/06/10 02:00:06;;;;;;;6.47;2.22;;;;;;;18.13;64.15;100616.38;1737035;81;25641;-55
2022/06/10 02:02:37;;;;;;;14.73;2.17;;;;;;;18.12;64.38;100616.91;1684983;83;26166;-57
2022/06/10 02:05:12;;;;;;;3.62;1.82;;;;;;;18.15;64.47;100621.13;1693141;83;25353;-56
2022/06/10 02:07:56;;;;;;;5.55;2.00;;;;;;;18.13;64.53;100624.05;1694432;83;27505;-55
2022/06/10 02:10:37;;;;;;;5.72;1.98;;;;;;;18.13;64.57;100628.63;1691084;83;25937;-56
2022/06/10 02:13:14;;;;;;;5.08;2.17;;;;;;;18.12;64.87;100629.16;1694419;83;25893;-55
2022/06/10 02:15:47;;;;;;;4.40;1.77;;;;;;;18.10;64.98;100627.14;1696995;82;26129;-56
2022/06/10 02:18:50;;;;;;;3.25;1.70;;;;;;;18.09;64.78;100636.34;1691926;83;27381;-56
2022/06/10 02:21:31;;;;;;;8.88;2.45;;;;;;;18.07;65.01;100634.84;1690829;83;28185;-56
2022/06/10 02:24:12;;;;;;;3.10;1.60;;;;;;;18.00;65.22;100634.75;1697453;82;25485;-57
2022/06/10 02:26:39;;;;;;;5.65;2.30;;;;;;;17.94;65.03;100635.48;1698901;83;26019;-56
2022/06/10 02:29:15;;;;;;;6.03;2.02;;;;;;;17.90;65.36;100641.81;1716804;81;26950;-56
2022/06/10 02:31:47;;;;;;;5.08;2.22;;;;;;;17.89;65.77;100634.68;1725398;81;25524;-56
2022/06/10 02:34:15;;;;;;;6.72;2.12;;;;;;;17.89;65.55;100639.27;1739234;82;27448;-55
2022/06/10 02:37:08;;;;;;;11.38;1.90;;;;;;;17.87;65.45;100638.10;1742047;81;25788;-56
2022/06/10 02:39:52;;;;;;;11.00;2.10;;;;;;;17.88;65.65;100641.16;1724810;81;31781;-56
2022/06/10 02:42:22;;;;;;;;;;;;;;;17.91;65.72;100648.09;1730852;81;26183;-56
2022/06/10 02:45:15;;;;;;;10.30;2.27;;;;;;;17.92;65.69;100653.37;1735256;81;26366;-55
2022/06/10 02:48:08;;;;;;;5.10;2.17;;;;;;;17.90;65.87;100650.48;1738896;80;26886;-56
2022/06/10 02:50:35;;;;;;;11.57;2.75;;;;;;;17.92;66.02;100652.50;1724793;81;25749;-55
2022/06/10 02:53:06;;;;;;;2.75;1.92;;;;;;;17.94;66.28;100648.56;1739680;80;25730;-56
2022/06/10 02:55:34;;;;;;;4.62;1.80;;;;;;;17.96;66.20;100662.03;1735630;81;26087;-56
2022/06/10 03:01:16;;;;;;;10.53;1.82;;;;;;;18.03;66.43;100658.02;1735913;82;27918;-56
2022/06/10 03:04:12;;;;;;;5.40;1.98;;;;;;;18.07;66.50;100656.09;1738107;81;25770;-55
2022/06/10 03:07:21;;;;;;;7.87;2.12;;;;;;;18.10;67.09;100660.34;1711180;81;25934;-56
2022/06/10 03:10:17;;;;;;;5.65;2.10;;;;;;;18.12;66.91;100664.55;1759518;80;26081;-56
2022/06/10 03:13:09;;;;;;;7.83;2.12;;;;;;;18.14;66.89;100664.35;1759185;80;25858;-55
2022/06/10 03:15:58;;;;;;;7.25;1.90;;;;;;;18.18;66.83;100661.59;1760497;80;27492;-56
2022/06/10 03:19:02;;;;;;;8.10;2.17;;;;;;;18.21;66.71;100663.92;1758561;80;25786;-55
2022/06/10 03:21:49;;;;;;;4.97;2.20;;;;;;;18.25;66.81;100669.33;1759466;80;25764;-56
2022/06/10 03:24:40;;;;;;;12.13;2.02;;;;;;;18.30;66.77;100661.95;1759105;80;26102;-56
2022/06/10 03:27:15;;;;;;;4.70;2.40;;;;;;;18.35;67.41;100675.00;1758004;80;25823;-55
2022/06/10 03:30:08;;;;;;;9.60;2.20;;;;;;;18.29;68.17;100673.88;1696008;81;27536;-55
2022/06/10 03:33:16;;;;;;;6.07;1.93;;;;;;;18.28;67.96;100673.55;1700939;82;25813;-56
2022/06/10 03:35:48;;;;;;;5.83;2.50;;;;;;;18.29;67.71;100670.63;1701911;82;25910;-55
2022/06/10 03:38:16;;;;;;;3.60;2.20;;;;;;;18.36;67.80;100671.25;1704946;84;26119;-56
2022/06/10 03:40:48;;;;;;;4.00;2.70;;;;;;;18.43;67.79;100667.55;1707273;82;25870;-55
2022/06/10 03:43:15;;;;;;;8.23;2.00;;;;;;;18.52;67.63;100671.52;1696531;82;27578;-55
2022/06/10 03:45:47;;;;;;;8.95;3.70;;;;;;;18.59;67.86;100668.38;1710631;82;25819;-55
2022/06/10 03:48:18;;;;;;;6.42;2.85;;;;;;;18.65;67.56;100672.23;1734560;81;26455;-55
2022/06/10 03:50:49;;;;;;;10.82;2.60;;;;;;;18.70;67.39;100681.48;1696257;82;26124;-55
2022/06/10 03:53:20;;;;;;;3.40;2.10;;;;;;;18.74;67.48;100678.72;1741742;81;25883;-56
2022/06/10 03:55:48;;;;;;;7.70;2.58;;;;;;;18.82;67.40;100668.72;1741236;81;27542;-56
2022/06/10 03:58:16;;;;;;;5.08;2.30;;;;;;;18.91;67.07;100671.66;1739016;82;25746;-56
2022/06/10 04:00:44;;;;;;;13.53;2.12;;;;;;;19.02;66.96;100672.54;1756087;80;25883;-56
2022/06/10 04:03:11;;;;;;;11.10;2.17;;;;;;;19.12;67.18;100682.28;1755974;81;25944;-55
2022/06/10 04:05:39;;;;;;;7.62;3.00;;;;;;;19.15;67.27;100681.37;1754685;81;25723;-56
2022/06/10 04:08:07;;;;;;;10.68;2.50;;;;;;;19.21;66.79;100685.20;1756932;80;27652;-55
2022/06/10 04:10:34;;;;;;;7.40;2.33;;;;;;;19.29;66.57;100689.16;1758828;80;25763;-56
2022/06/10 04:13:01;;;;;;;4.12;2.42;;;;;;;19.41;66.35;100688.63;1742030;81;25739;-55
2022/06/10 04:15:28;;;;;;;9.60;2.85;;;;;;;19.50;66.00;100691.01;1739787;81;26114;-56
2022/06/10 04:17:57;;;;;;;5.65;2.20;;;;;;;19.58;65.56;100696.85;1739981;81;25776;-55
2022/06/10 04:20:29;;;;;;;11.18;2.65;;;;;;;19.61;65.35;100697.80;1759947;80;27409;-56
2022/06/10 04:22:58;;;;;;;6.60;2.65;;;;;;;19.64;65.19;100708.33;1756605;80;25838;-56
2022/06/10 04:25:25;;;;;;;15.40;2.30;;;;;;;19.67;65.10;100705.22;1757520;80;25818;-56
2022/06/10 04:27:54;;;;;;;10.35;3.72;;;;;;;19.73;65.01;100712.28;1754199;79;26290;-56
2022/06/10 04:30:38;;;;;;;18.98;3.27;;;;;;;19.78;64.88;100705.69;1727687;81;25905;-56
2022/06/10 04:33:06;;;;;;;14.80;2.85;;;;;;;19.84;64.53;100713.10;1727442;81;27505;-56
2022/06/10 04:35:36;;;;;;;17.10;2.85;;;;;;;19.92;64.22;100720.30;1729905;81;25957;-56
2022/06/10 04:38:05;;;;;;;17.70;3.50;;;;;;;19.93;63.79;100728.31;1728761;81;25646;-57
2022/06/10 04:40:36;;;;;;;18.87;3.62;;;;;;;19.90;63.39;100751.08;1728432;81;26225;-55
2022/06/10 04:43:05;;;;;;;26.93;4.00;;;;;;;19.83;62.43;100748.27;1730130;81;25767;-56
2022/06/10 04:45:37;;;;;;;22.20;4.58;;;;;;;19.80;61.84;100750.02;1728122;81;27469;-55
2022/06/10 04:48:05;;;;;;;23.38;4.72;;;;;;;19.78;61.74;100752.09;1729774;82;26100;-57
2022/06/10 04:50:32;;;;;;;14.80;4.40;;;;;;;19.79;61.43;100751.05;1730546;80;25711;-55
2022/06/10 04:52:59;;;;;;;21.97;4.42;;;;;;;19.76;60.69;100774.12;1757550;80;26118;-56
2022/06/10 04:55:27;;;;;;;21.17;5.28;;;;;;;19.72;61.13;100779.67;1758579;80;25719;-56
2022/06/10 04:57:55;;;;;;;30.50;5.30;;;;;;;19.71;61.27;100769.27;1755911;80;28173;-56
2022/06/10 05:00:27;;;;;;;22.20;5.97;;;;;;;19.76;61.56;100771.40;1739235;81;25843;-56
2022/06/10 05:02:54;;;;;;;32.25;6.08;;;;;;;19.80;61.41;100767.75;1755770;81;25802;-56
2022/06/10 05:05:23;;;;;;;34.53;7.53;;;;;;;19.81;61.34;100768.08;1737818;81;26107;-56
2022/06/10 05:07:49;;;;;;;37.00;7.00;;;;;;;19.80;61.02;100767.75;1729218;82;25412;-55
2022/06/10 05:10:18;;;;;;;27.45;6.87;;;;;;;19.82;61.06;100775.23;1728796;81;27487;-56
2022/06/10 05:12:45;;;;;;;24.52;6.67;;;;;;;19.82;61.11;100776.59;1728410;81;25825;-56
2022/06/10 05:15:15;;;;;;;23.73;6.45;;;;;;;19.83;61.18;100783.21;1754851;81;25877;-56
2022/06/10 05:17:43;;;;;;;19.05;6.55;;;;;;;19.86;61.18;100784.73;1746731;81;26786;-55
2022/06/10 05:20:18;;;;;;;30.20;6.37;;;;;;;19.86;61.03;100781.49;1728758;81;25712;-57
2022/06/10 05:22:45;;;;;;;25.37;6.40;;;;;;;19.87;61.13;100795.97;1741354;82;27521;-56
2022/06/10 05:25:13;;;;;;;27.75;6.47;;;;;;;19.85;61.18;100816.66;1762782;80;25752;-56
2022/06/10 05:27:40;;;;;;;23.73;6.22;;;;;;;19.86;61.43;100819.71;1742863;81;25941;-56
2022/06/10 05:30:13;;;;;;;34.78;5.37;;;;;;;19.86;61.61;100830.63;1702019;82;26078;-55
2022/06/10 05:32:40;;;;;;;21.02;5.83;;;;;;;19.87;61.82;100839.66;1745235;82;25691;-56
2022/06/10 05:35:08;;;;;;;19.45;5.15;;;;;;;19.86;62.56;100845.65;1744865;81;28450;-56
2022/06/10 05:37:35;;;;;;;23.98;5.80;;;;;;;19.80;63.20;100857.33;1740192;81;25860;-55
2022/06/10 05:40:05;;;;;;;22.40;5.95;;;;;;;19.78;64.35;100864.86;1750081;80;25670;-55
2022/06/10 05:42:32;;;;;;;14.70;4.15;;;;;;;19.74;64.44;100852.62;1738127;81;26381;-56
2022/06/10 05:45:00;;;;;;;15.15;4.30;;;;;;;19.75;65.56;100846.66;1732419;81;25480;-56
2022/06/10 05:47:31;;;;;;;23.75;5.28;;;;;;;19.76;66.46;100846.99;1714136;82;28319;-56
2022/06/10 05:50:02;;;;;;;16.10;4.75;;;;;;;19.75;68.42;100852.95;1713996;82;25949;-55
2022/06/10 05:52:30;;;;;;;12.90;4.83;;;;;;;19.69;67.52;100839.56;1729048;81;25708;-55
2022/06/10 05:55:02;;;;;;;12.15;3.60;;;;;;;19.70;67.93;100826.25;1748119;81;26093;-55
2022/06/10 05:57:31;;;;;;;10.05;3.92;;;;;;;19.59;68.69;100800.84;1740851;81;25739;-55
2022/06/10 05:59:58;;;;;;;9.18;4.33;;;;;;;19.33;69.82;100787.26;1740593;81;28253;-55
2022/06/10 06:02:26;;;;;;;22.15;7.35;;;;;;;19.20;70.04;100781.68;1739020;81;25933;-54
2022/06/10 06:04:53;;;;;;;13.75;3.85;;;;;;;19.20;70.82;100787.96;1742776;81;25750;-55
2022/06/10 06:07:26;;;;;;;11.60;4.08;;;;;;;19.28;70.47;100797.05;1739283;81;26079;-55
2022/06/10 06:09:54;;;;;;;10.18;3.80;;;;;;;19.39;70.08;100791.95;1711020;82;25768;-55
2022/06/10 06:12:22;;;;;;;6.65;3.30;;;;;;;19.46;69.94;100795.27;1695033;83;27503;-55
2022/06/10 06:14:50;;;;;;;16.25;3.80;;;;;;;19.51;70.34;100801.83;1694206;83;25769;-56
2022/06/10 06:17:19;;;;;;;10.82;3.27;;;;;;;19.55;70.35;100819.48;1698777;83;25951;-55
2022/06/10 06:19:46;;;;;;;8.33;3.42;;;;;;;19.54;69.57;100821.88;1695038;83;27023;-55
2022/06/10 06:22:14;;;;;;;12.53;2.90;;;;;;;19.58;69.42;100822.37;1696273;84;25479;-55
2022/06/10 06:24:41;;;;;;;13.48;3.05;;;;;;;19.61;69.74;100825.22;1696985;83;27489;-55
2022/06/10 06:27:14;;;;;;;6.92;2.55;;;;;;;19.62;69.32;100827.74;1696175;83;25840;-55
2022/06/10 06:29:42;;;;;;;3.42;2.40;;;;;;;19.63;69.27;100825.34;1688961;83;25750;-55
2022/06/10 06:32:09;;;;;;;11.83;3.37;;;;;;;19.63;69.00;100832.16;1687875;82;26095;-56
2022/06/10 06:34:38;;;;;;;12.25;3.60;;;;;;;19.66;69.04;100839.97;1705223;82;25776;-56
2022/06/10 06:37:09;;;;;;;8.53;3.05;;;;;;;19.67;69.17;100833.98;1711740;82;27458;-56
2022/06/10 06:39:36;;;;;;;7.40;2.80;;;;;;;19.64;69.46;100837.09;1708003;83;25853;-56
2022/06/10 06:42:04;;;;;;;15.55;3.17;;;;;;;19.63;69.29;100831.34;1703484;82;25900;-57
2022/06/10 06:44:33;;;;;;;9.90;3.37;;;;;;;19.66;69.13;100826.83;1706034;83;26767;-56
2022/06/10 06:47:00;;;;;;;6.87;2.77;;;;;;;19.71;69.08;100838.02;1714976;82;25694;-56
2022/06/10 06:49:29;;;;;;;7.45;3.65;;;;;;;19.78;69.00;100842.16;1719948;83;27488;-56
2022/06/10 06:51:57;;;;;;;8.58;3.05;;;;;;;19.83;69.00;100819.23;1752295;81;26004;-56
2022/06/10 06:54:24;;;;;;;7.45;3.25;;;;;;;19.79;68.79;100828.34;1757121;80;25731;-56
2022/06/10 06:56:51;;;;;;;12.28;3.08;;;;;;;19.74;69.16;100833.52;1741993;81;26158;-56
2022/06/10 06:59:18;;;;;;;6.22;2.75;;;;;;;19.68;69.27;100821.49;1740917;81;26121;-56
2022/06/10 07:01:45;;;;;;;8.25;3.10;;;;;;;19.58;69.82;100812.81;1742004;81;27479;-56
2022/06/10 07:04:12;;;;;;;12.85;3.65;;;;;;;19.51;70.84;100806.42;1739755;80;25727;-56
2022/06/10 07:06:38;;;;;;;7.62;3.70;;;;;;;19.51;70.20;100820.93;1742501;81;25767;-56
2022/06/10 07:09:06;;;;;;;7.25;3.27;;;;;;;19.55;71.04;100823.58;1751810;80;26206;-57
2022/06/10 07:11:33;;;;;;;11.38;4.25;;;;;;;19.57;71.10;100824.77;1741522;81;25770;-55
2022/06/10 07:14:00;;;;;;;13.43;4.58;;;;;;;19.59;70.87;100816.37;1755359;81;27464;-56
2022/06/10 07:16:27;;;;;;;11.22;4.22;;;;;;;19.61;71.31;100817.03;1762234;80;25472;-56
2022/06/10 07:18:54;;;;;;;8.28;4.65;;;;;;;19.62;70.98;100814.10;1738973;81;25863;-56
2022/06/10 07:21:21;;;;;;;12.63;4.92;;;;;;;19.62;71.52;100823.66;1736559;81;26084;-56
2022/06/10 07:23:48;;;;;;;9.78;3.80;;;;;;;19.67;71.48;100833.48;1741908;81;27284;-55
2022/06/10 07:26:16;;;;;;;13.38;4.30;;;;;;;19.68;71.66;100834.31;1737646;81;27441;-55
2022/06/10 07:28:44;;;;;;;9.40;3.58;;;;;;;19.61;71.00;100827.95;1743662;80;25883;-56
2022/06/10 07:31:11;;;;;;;10.93;4.10;;;;;;;19.61;71.52;100830.14;1739990;82;25668;-56
2022/06/10 07:33:38;;;;;;;6.78;3.45;;;;;;;19.57;71.12;100828.86;1720316;82;26744;-56
2022/06/10 07:36:07;;;;;;;6.75;3.83;;;;;;;19.60;70.93;100830.34;1733336;82;25918;-56
2022/06/10 07:38:34;;;;;;;11.70;4.00;;;;;;;19.63;70.96;100828.61;1720822;81;28185;-56
2022/06/10 07:43:47;;;;;;;13.58;6.45;;;;;;;19.65;70.95;100828.73;1720887;82;25762;-56
2022/06/10 07:46:18;;;;;;;18.82;5.37;;;;;;;19.71;71.09;100830.66;1727411;82;26119;-56
2022/06/10 07:48:46;;;;;;;14.15;7.20;;;;;;;19.81;71.08;100831.69;1728332;81;25771;-56
2022/06/10 07:51:14;;;;;;;6.55;3.37;;;;;;;19.94;70.76;100833.75;1725833;81;27625;-56
2022/06/10 07:53:41;;;;;;;8.35;4.45;;;;;;;20.06;70.59;100836.79;1721370;83;25854;-56
2022/06/10 07:56:11;;;;;;;13.03;4.33;;;;;;;20.20;70.38;100842.34;1717535;83;25750;-56
2022/06/10 07:58:37;;;;;;;11.60;3.25;;;;;;;20.30;69.82;100842.84;1717948;83;26231;-55
2022/06/10 08:01:04;;;;;;;12.78;4.67;;;;;;;20.43;69.53;100850.28;1720057;82;25898;-56
2022/06/10 08:03:31;;;;;;;8.85;3.87;;;;;;;20.51;69.30;100838.37;1717532;83;28286;-57
2022/06/10 08:05:59;;;;;;;7.42;4.05;;;;;;;20.58;68.76;100841.44;1723602;83;25707;-57
2022/06/10 08:08:26;;;;;;;10.78;3.22;;;;;;;20.59;68.34;100839.03;1686995;82;25939;-57
2022/06/10 08:10:55;;;;;;;6.62;3.45;;;;;;;20.57;67.80;100842.52;1717720;83;26152;-57
2022/06/10 08:13:22;;;;;;;14.40;3.80;;;;;;;20.65;67.80;100836.02;1722264;83;25840;-57
2022/06/10 08:15:49;;;;;;;10.45;3.12;;;;;;;20.83;67.70;100836.05;1722283;83;27286;-57
2022/06/10 08:18:20;;;;;;;7.47;3.15;;;;;;;21.02;67.45;100835.30;1719623;83;25796;-57
2022/06/10 08:23:37;;;;;;;13.32;3.62;;;;;;;21.43;65.89;100837.64;1719594;82;26116;-56
2022/06/10 08:26:08;;;;;;;9.30;3.05;;;;;;;21.76;65.21;100843.72;1706482;83;26231;-56
2022/06/10 08:28:38;;;;;;;7.53;2.95;;;;;;;21.98;62.99;100851.22;1705403;82;27484;-56
2022/06/10 08:31:06;;;;;;;4.67;2.95;;;;;;;22.02;61.71;100855.75;1722057;82;25908;-56
2022/06/10 08:33:33;;;;;;;9.48;2.85;;;;;;;21.99;61.77;100854.28;1743226;81;25716;-56
2022/06/10 08:36:03;;;;;;;4.50;2.62;;;;;;;22.05;61.65;100864.92;1708390;82;26876;-55
2022/06/10 08:38:31;;;;;;;6.67;2.80;;;;;;;21.98;60.98;100863.55;1742009;81;26098;-56
2022/06/10 08:41:12;;;;;;;9.08;2.60;;;;;;;21.89;61.14;100865.66;1715721;81;28132;-56
2022/06/10 08:44:30;;;;;;;7.40;2.98;;;;;;;21.84;61.26;100867.34;1729231;81;25767;-56
2022/06/10 08:47:08;;;;;;;5.67;2.50;;;;;;;21.81;61.32;100878.69;1709822;81;26015;-56
2022/06/10 08:50:04;;;;;;;12.55;2.52;;;;;;;21.97;61.49;100885.67;1705497;81;26270;-56
2022/06/10 08:53:00;;;;;;;11.28;3.17;;;;;;;22.10;61.42;100886.20;1714141;82;25832;-56
2022/06/10 08:55:44;;;;;;;14.45;3.85;;;;;;;22.19;61.30;100892.62;1736968;82;27493;-55
2022/06/10 08:58:20;;;;;;;;;;;;;;;22.31;61.33;100891.49;1691498;83;26666;-56
2022/06/10 09:00:50;;;;;;;10.75;3.00;;;;;;;22.41;61.16;100886.97;1711346;80;25742;-56
2022/06/10 09:03:29;;;;;;;12.23;2.95;;;;;;;22.46;61.01;100883.59;1748483;82;26784;-56
2022/06/10 09:06:07;;;;;;;13.65;2.80;;;;;;;22.45;60.95;100875.91;1744404;81;25508;-55
2022/06/10 09:08:42;;;;;;;12.05;3.10;;;;;;;22.53;60.55;100875.38;1744103;81;27352;-56
2022/06/10 09:11:37;;;;;;;6.12;2.83;;;;;;;22.56;59.84;100878.52;1735351;81;25640;-56
2022/06/10 09:14:23;;;;;;;11.03;2.83;;;;;;;22.60;59.79;100881.14;1738044;81;25897;-56
2022/06/10 09:16:59;;;;;;;12.40;3.02;;;;;;;22.79;59.40;100895.02;1687555;84;26048;-56
2022/06/10 09:20:05;;;;;;;7.85;2.87;;;;;;;22.92;58.49;100904.61;1690767;84;26376;-56
2022/06/10 09:22:43;;;;;;;17.25;2.80;;;;;;;23.10;58.04;100897.04;1680833;84;27473;-56
2022/06/10 09:25:18;;;;;;;10.72;2.75;;;;;;;23.38;58.14;100898.65;1686662;84;25759;-56
2022/06/10 09:27:50;;;;;;;19.27;2.60;;;;;;;23.56;57.41;100888.84;1676492;84;25466;-56
2022/06/10 09:30:22;;;;;;;11.12;2.98;;;;;;;23.67;56.73;100880.42;1683175;84;26070;-56
2022/06/10 09:33:12;;;;;;;5.87;2.70;;;;;;;23.82;56.19;100882.88;1678780;84;25830;-56
2022/06/10 09:35:53;;;;;;;10.05;2.62;;;;;;;23.81;55.60;100885.30;1691033;84;28363;-56
2022/06/10 09:38:37;;;;;;;6.83;2.62;;;;;;;23.84;55.71;100891.22;1678461;84;25862;-57
2022/06/10 09:41:35;;;;;;;9.00;2.58;;;;;;;24.01;55.39;100897.03;1682297;84;26629;-57
2022/06/10 09:44:19;;;;;;;20.05;2.83;;;;;;;24.13;55.42;100894.95;1691676;84;26146;-57
2022/06/10 09:47:04;;;;;;;9.78;2.40;;;;;;;24.05;54.68;100899.66;1708546;83;25476;-56
2022/06/10 09:49:59;;;;;;;12.82;2.50;;;;;;;23.98;54.45;100907.63;1715396;81;27606;-56
2022/06/10 09:52:46;;;;;;;8.23;2.50;;;;;;;23.97;55.01;100900.45;1714469;81;25948;-56
2022/06/10 09:55:45;;;;;;;5.50;2.22;;;;;;;24.07;55.18;100907.13;1708106;81;25499;-56
2022/06/10 09:58:49;;;;;;;4.78;2.02;;;;;;;24.00;54.65;100903.59;1720526;83;26354;-56
2022/06/10 10:01:42;;;;;;;3.45;2.30;;;;;;;23.88;54.17;100908.10;1720893;81;25743;-56
2022/06/10 10:04:32;;;;;;;6.53;2.00;;;;;;;23.78;54.10;100911.31;1719805;81;27467;-56
2022/06/10 10:07:26;;;;;;;4.80;2.25;;;;;;;23.73;54.11;100922.97;1720760;83;25580;-56
2022/06/10 10:10:30;;;;;;;6.67;2.22;;;;;;;23.69;53.84;100923.11;1711129;81;25769;-57
2022/06/10 10:13:21;;;;;;;6.03;2.00;;;;;;;23.70;54.46;100921.19;1714575;83;26153;-56
2022/06/10 10:15:56;;;;;;;3.90;2.30;;;;;;;23.69;54.32;100915.38;1701869;81;25795;-56
2022/06/10 10:18:43;;;;;;;4.17;2.35;;;;;;;23.60;53.27;100914.81;1706104;82;27636;-56
2022/06/10 10:21:23;;;;;;;2.65;1.57;;;;;;;23.55;53.72;100903.12;1745679;82;26056;-56
2022/06/10 10:23:54;;;;;;;3.60;1.90;;;;;;;23.55;52.33;100902.26;1693639;82;25808;-55
2022/06/10 10:26:25;;;;;;;7.12;2.25;;;;;;;23.69;53.78;100905.77;1737968;81;25974;-56
2022/06/10 10:29:03;;;;;;;6.37;2.67;;;;;;;23.87;53.96;100910.53;1716030;83;25862;-56
2022/06/10 10:31:36;;;;;;;6.50;2.40;;;;;;;24.02;54.11;100914.38;1719479;82;27490;-56
2022/06/10 10:34:05;;;;;;;6.12;2.60;;;;;;;24.04;53.88;100917.21;1716391;82;25834;-56
2022/06/10 10:36:51;;;;;;;5.85;2.80;;;;;;;24.06;53.77;100916.46;1708923;82;25785;-56
2022/06/10 10:39:38;;;;;;;9.95;3.10;;;;;;;24.07;53.84;100915.92;1714184;82;26044;-57
2022/06/10 10:42:23;;;;;;;8.05;2.20;;;;;;;24.09;53.45;100918.43;1716794;83;25807;-57
2022/06/10 10:45:04;;;;;;;3.12;1.77;;;;;;;24.06;52.68;100924.70;1702494;83;27665;-55
2022/06/10 10:47:32;;;;;;;3.50;1.90;;;;;;;23.89;51.01;100917.48;1740435;80;25777;-56
2022/06/10 10:50:05;;;;;;;4.80;1.72;;;;;;;23.90;50.92;100913.68;1740817;81;25867;-56
2022/06/10 10:52:40;;;;;;;9.53;1.92;;;;;;;24.03;51.30;100911.41;1715748;82;26125;-56
2022/06/10 10:55:21;;;;;;;4.60;1.70;;;;;;;24.07;51.45;100912.63;1740133;82;25926;-56
2022/06/10 10:58:20;;;;;;;7.12;2.00;;;;;;;24.03;51.54;100912.77;1739188;81;27488;-56
2022/06/10 11:01:02;;;;;;;5.28;2.30;;;;;;;24.11;52.04;100921.80;1753655;81;25854;-57
2022/06/10 11:03:40;;;;;;;14.58;2.40;;;;;;;24.28;52.57;100924.86;1758386;80;25741;-56
2022/06/10 11:06:12;;;;;;;5.33;1.90;;;;;;;24.43;53.18;100933.60;1740799;81;26098;-57
2022/06/10 11:08:40;;;;;;;4.42;1.60;;;;;;;24.46;54.34;100925.43;1736620;81;25736;-57
2022/06/10 11:11:24;;;;;;;3.10;1.80;;;;;;;24.41;53.83;100917.03;1717406;82;27634;-55
2022/06/10 11:14:01;;;;;;;5.22;2.80;;;;;;;24.32;54.40;100912.33;1741281;81;25886;-56
2022/06/10 11:16:42;;;;;;;5.97;2.72;;;;;;;24.07;55.90;100906.30;1727579;81;25675;-57
2022/06/10 11:19:20;;;;;;;4.67;2.10;;;;;;;23.94;56.28;100892.13;1742678;81;27188;-57
2022/06/10 11:21:55;;;;;;;8.30;2.50;;;;;;;23.96;56.73;100886.40;1751379;80;25816;-57
2022/06/10 11:24:27;;;;;;;4.10;1.92;;;;;;;23.97;56.97;100882.08;1757221;81;27601;-56
2022/06/10 11:27:00;;;;;;;4.97;1.82;;;;;;;23.80;55.70;100876.23;1731835;81;25559;-56
2022/06/10 11:29:30;;;;;;;6.28;2.22;;;;;;;23.56;55.18;100878.72;1721466;82;25840;-56
2022/06/10 11:32:04;;;;;;;4.92;2.52;;;;;;;23.34;56.00;100878.20;1690303;83;26754;-56
2022/06/10 11:34:43;;;;;;;5.80;2.70;;;;;;;23.24;56.71;100875.08;1691222;84;25893;-56
2022/06/10 11:37:25;;;;;;;3.15;2.10;;;;;;;23.25;57.15;100872.66;1713965;82;27464;-57
2022/06/10 11:39:59;;;;;;;4.75;2.25;;;;;;;23.25;57.29;100865.25;1732363;81;43346;-58
2022/06/10 11:42:31;;;;;;;4.95;1.87;;;;;;;23.14;56.53;100847.55;1741883;81;25797;-57
2022/06/10 11:45:08;;;;;;;5.22;2.00;;;;;;;23.10;56.37;100840.80;1745615;81;26129;-56
2022/06/10 11:47:41;;;;;;;2.90;2.10;;;;;;;23.10;56.51;100847.66;1721185;81;25715;-57
2022/06/10 11:50:19;;;;;;;3.27;1.90;;;;;;;23.08;56.27;100841.56;1692056;84;32582;-55
2022/06/10 11:52:57;;;;;;;7.00;3.67;;;;;;;23.16;56.58;100830.02;1690590;82;25933;-56
2022/06/10 11:55:32;;;;;;;4.78;2.30;;;;;;;23.36;56.30;100834.06;1676439;84;25880;-57
2022/06/10 12:01:15;;;;;;;4.15;2.27;;;;;;;24.46;54.78;100839.67;1672654;84;25788;-57
2022/06/10 12:03:51;;;;;;;4.10;1.82;;;;;;;25.23;51.51;100838.38;1659788;84;29590;-57
2022/06/10 12:06:29;;;;;;;6.95;2.42;;;;;;;26.56;49.69;100843.38;1676853;85;25876;-56
2022/06/10 12:09:20;;;;;;;5.80;2.15;;;;;;;28.15;48.70;100840.67;1670097;85;25751;-57
2022/06/10 12:11:58;;;;;;;6.72;2.10;;;;;;;29.82;46.45;100841.09;1661645;85;26748;-56